createdAt,value
2018-06-21T02:51:43.285Z,7.50
2018-06-21T02:52:43.238Z,9.40
2018-06-21T02:53:43.216Z,8.60
2018-06-21T02:54:43.195Z,7.20
2018-06-21T02:55:43.175Z,9.60
2018-06-21T02:56:43.153Z,8.40
2018-06-21T02:57:43.130Z,9.10
2018-06-21T02:58:43.110Z,7.80
2018-06-21T02:59:43.104Z,10.40
2018-06-21T03:00:43.069Z,8.90
2018-06-21T03:01:43.048Z,10.40
2018-06-21T03:02:43.026Z,8.90
2018-06-21T03:03:43.014Z,9.30
2018-06-21T03:04:42.986Z,8.30
2018-06-21T03:05:42.967Z,11.70
2018-06-21T03:06:42.946Z,8.40
2018-06-21T03:07:42.925Z,10.60
2018-06-21T03:08:42.907Z,6.90
2018-06-21T03:09:42.890Z,9.40
2018-06-21T03:10:42.866Z,9.40
2018-06-21T03:11:42.846Z,8.90
2018-06-21T03:12:42.827Z,10.90
2018-06-21T03:13:42.804Z,10.30
2018-06-21T03:14:42.785Z,8.80
2018-06-21T03:15:42.766Z,8.20
2018-06-21T03:16:42.747Z,8.20
2018-06-21T03:17:42.727Z,8.60
2018-06-21T03:18:42.706Z,8.90
2018-06-21T03:19:42.684Z,8.40
2018-06-21T03:20:42.703Z,7.10
2018-06-21T03:21:42.647Z,9.00
2018-06-21T03:22:42.627Z,9.80
2018-06-21T03:23:42.605Z,8.40
2018-06-21T03:24:42.702Z,9.40
2018-06-21T03:25:42.566Z,8.80
2018-06-21T03:26:42.546Z,8.10
2018-06-21T03:27:42.525Z,11.50
2018-06-21T03:28:42.506Z,8.70
2018-06-21T03:29:42.485Z,12.00
2018-06-21T03:30:42.465Z,11.60
2018-06-21T03:31:42.447Z,11.30
2018-06-21T03:32:42.425Z,9.40
2018-06-21T03:33:42.406Z,8.90
2018-06-21T03:34:42.385Z,10.10
2018-06-21T03:35:42.367Z,9.00
2018-06-21T03:36:42.346Z,8.50
2018-06-21T03:37:42.328Z,8.90
2018-06-21T03:38:42.309Z,11.30
2018-06-21T03:39:42.289Z,10.40
2018-06-21T03:40:42.269Z,8.50
2018-06-21T03:41:42.248Z,9.00
2018-06-21T03:42:42.227Z,9.20
2018-06-21T03:43:42.208Z,7.40
2018-06-21T03:44:42.190Z,8.90
2018-06-21T03:45:42.172Z,10.30
2018-06-21T03:46:42.147Z,11.70
2018-06-21T03:47:42.129Z,9.30
2018-06-21T03:48:42.110Z,8.40
2018-06-21T03:49:42.091Z,8.90
2018-06-21T03:50:42.071Z,10.50
2018-06-21T03:51:42.052Z,9.50
2018-06-21T03:52:42.032Z,9.30
2018-06-21T03:53:42.013Z,10.60
2018-06-21T03:54:41.999Z,11.40
2018-06-21T03:55:41.973Z,8.60
2018-06-21T03:56:41.954Z,10.20
2018-06-21T03:57:41.937Z,7.50
2018-06-21T03:58:41.914Z,8.80
2018-06-21T03:59:41.900Z,9.90
2018-06-21T04:00:41.876Z,11.00
2018-06-21T04:01:41.857Z,10.20
2018-06-21T04:02:41.834Z,11.40
2018-06-21T04:03:41.820Z,9.50
2018-06-21T04:04:41.800Z,8.60
2018-06-21T04:05:41.779Z,7.30
2018-06-21T04:06:41.759Z,12.40
2018-06-21T04:07:41.740Z,9.00
2018-06-21T04:08:41.721Z,10.00
2018-06-21T04:09:41.702Z,9.30
2018-06-21T04:10:41.682Z,10.80
2018-06-21T04:11:41.664Z,11.00
2018-06-21T04:12:41.644Z,10.40
2018-06-21T04:13:41.628Z,9.00
2018-06-21T04:14:41.605Z,9.50
2018-06-21T04:15:41.586Z,9.90
2018-06-21T04:16:41.565Z,7.30
2018-06-21T04:17:41.549Z,8.70
2018-06-21T04:18:41.530Z,9.50
2018-06-21T04:19:41.512Z,9.00
2018-06-21T04:20:41.491Z,10.60
2018-06-21T04:21:41.476Z,7.30
2018-06-21T04:22:41.451Z,8.70
2018-06-21T04:23:41.442Z,9.10
2018-06-21T04:24:41.413Z,8.90
2018-06-21T04:25:41.395Z,10.00
2018-06-21T04:26:41.374Z,11.10
2018-06-21T04:27:41.356Z,12.30
2018-06-21T04:28:41.337Z,10.20
2018-06-21T04:29:41.322Z,9.20
2018-06-21T04:30:41.300Z,9.70
2018-06-21T04:31:41.279Z,9.00
2018-06-21T04:32:41.262Z,9.80
2018-06-21T04:33:41.242Z,9.30
2018-06-21T04:34:41.223Z,9.20
2018-06-21T04:35:41.209Z,7.70
2018-06-21T04:36:41.184Z,9.50
2018-06-21T04:37:41.165Z,9.20
2018-06-21T04:38:41.146Z,12.10
2018-06-21T04:39:41.164Z,11.60
2018-06-21T04:40:41.122Z,11.60
2018-06-21T04:41:41.090Z,11.20
2018-06-21T04:42:41.070Z,8.90
2018-06-21T04:43:41.053Z,12.00
2018-06-21T04:44:41.039Z,11.60
2018-06-21T04:45:41.016Z,12.40
2018-06-21T04:46:40.995Z,11.40
2018-06-21T04:47:40.977Z,11.50
2018-06-21T04:48:40.963Z,11.10
2018-06-21T04:49:40.938Z,14.00
2018-06-21T04:50:40.937Z,14.70
2018-06-21T04:51:40.977Z,13.80
2018-06-21T04:52:40.890Z,10.50
2018-06-21T04:53:40.860Z,14.80
2018-06-21T04:54:40.845Z,14.10
2018-06-21T04:55:40.827Z,18.90
2018-06-21T04:56:40.807Z,14.20
2018-06-21T04:57:40.789Z,13.30
2018-06-21T04:58:40.768Z,14.70
2018-06-21T04:59:40.750Z,13.50
2018-06-21T05:00:40.735Z,17.40
2018-06-21T05:01:40.710Z,14.60
2018-06-21T05:02:40.699Z,12.20
2018-06-21T05:03:40.676Z,14.30
2018-06-21T05:04:40.658Z,15.10
2018-06-21T05:05:40.640Z,16.10
2018-06-21T05:06:40.617Z,13.40
2018-06-21T05:07:40.600Z,16.60
2018-06-21T05:08:40.581Z,15.80
2018-06-21T05:09:40.564Z,17.60
2018-06-21T05:10:40.543Z,17.00
2018-06-21T05:11:40.520Z,18.10
2018-06-21T05:12:40.507Z,18.70
2018-06-21T05:13:40.503Z,20.20
2018-06-21T05:14:40.469Z,20.00
2018-06-21T05:15:40.450Z,19.50
2018-06-21T05:16:40.431Z,21.50
2018-06-21T05:17:40.412Z,17.90
2018-06-21T05:18:40.394Z,19.70
2018-06-21T05:19:40.376Z,22.20
2018-06-21T05:20:40.357Z,30.80
2018-06-21T05:21:40.337Z,27.30
2018-06-21T05:22:40.319Z,30.70
2018-06-21T05:23:40.299Z,35.50
2018-06-21T05:24:40.281Z,39.50
2018-06-21T05:25:40.260Z,34.90
2018-06-21T05:26:40.241Z,42.40
2018-06-21T05:27:40.220Z,41.40
2018-06-21T05:28:40.204Z,42.00
2018-06-21T05:29:40.192Z,43.70
2018-06-21T05:30:40.163Z,50.90
2018-06-21T05:31:40.147Z,54.80
2018-06-21T05:32:40.125Z,45.60
2018-06-21T05:33:40.106Z,44.50
2018-06-21T05:34:40.096Z,50.70
2018-06-21T05:35:40.065Z,54.40
2018-06-21T05:36:40.052Z,55.20
2018-06-21T05:37:40.040Z,58.90
2018-06-21T05:38:40.009Z,48.40
2018-06-21T05:39:39.987Z,51.00
2018-06-21T05:40:39.970Z,57.50
2018-06-21T05:41:39.948Z,55.40
2018-06-21T05:42:39.925Z,59.90
2018-06-21T05:43:39.907Z,72.70
2018-06-21T05:44:39.887Z,52.30
2018-06-21T05:45:39.868Z,50.70
2018-06-21T05:46:39.850Z,44.90
2018-06-21T05:47:39.830Z,45.00
2018-06-21T05:48:39.811Z,44.80
2018-06-21T05:49:39.789Z,41.30
2018-06-21T05:50:39.768Z,35.30
2018-06-21T05:51:39.753Z,42.00
2018-06-21T05:52:39.731Z,32.40
2018-06-21T05:53:39.710Z,41.20
2018-06-21T05:54:39.687Z,40.00
2018-06-21T05:55:39.666Z,32.00
2018-06-21T05:56:39.650Z,33.50
2018-06-21T05:57:39.631Z,28.90
2018-06-21T05:58:39.606Z,27.00
2018-06-21T05:59:39.586Z,28.90
2018-06-21T06:00:39.566Z,28.70
2018-06-21T06:01:39.548Z,21.40
2018-06-21T06:02:39.528Z,25.80
2018-06-21T06:03:39.508Z,26.30
2018-06-21T06:04:39.488Z,27.30
2018-06-21T06:05:39.473Z,27.30
2018-06-21T06:06:39.449Z,26.70
2018-06-21T06:07:39.431Z,21.10
2018-06-21T06:08:39.599Z,25.90
2018-06-21T06:09:39.387Z,24.70
2018-06-21T06:10:39.366Z,21.10
2018-06-21T06:11:39.346Z,19.80
2018-06-21T06:12:39.325Z,14.90
2018-06-21T06:13:39.307Z,11.60
2018-06-21T06:14:39.287Z,11.80
2018-06-21T06:15:39.265Z,15.70
2018-06-21T06:16:39.249Z,16.00
2018-06-21T06:17:39.230Z,17.20
2018-06-21T06:18:39.206Z,16.10
2018-06-21T06:19:39.188Z,20.50
2018-06-21T06:20:39.167Z,16.10
2018-06-21T06:21:39.146Z,15.90
2018-06-21T06:22:39.127Z,16.00
2018-06-21T06:23:39.112Z,17.70
2018-06-21T06:24:39.085Z,17.90
2018-06-21T06:25:39.064Z,17.40
2018-06-21T06:26:39.048Z,16.60
2018-06-21T06:27:39.024Z,18.50
2018-06-21T06:28:39.063Z,15.50
2018-06-21T06:29:38.980Z,15.30
2018-06-21T06:30:38.962Z,14.00
2018-06-21T06:31:38.940Z,11.00
2018-06-21T06:32:38.922Z,11.10
2018-06-21T06:33:38.903Z,10.60
2018-06-21T06:34:38.917Z,9.90
2018-06-21T06:35:38.860Z,11.40
2018-06-21T06:36:38.843Z,10.90
2018-06-21T06:37:38.820Z,12.50
2018-06-21T06:38:38.804Z,9.60
2018-06-21T06:39:38.782Z,10.00
2018-06-21T06:40:38.764Z,8.60
2018-06-21T06:41:38.737Z,9.10
2018-06-21T06:42:38.716Z,10.40
2018-06-21T06:43:38.695Z,11.90
2018-06-21T06:44:38.676Z,9.00
2018-06-21T06:45:38.656Z,10.10
2018-06-21T06:46:38.636Z,9.30
2018-06-21T06:47:38.617Z,10.10
2018-06-21T06:48:38.595Z,9.00
2018-06-21T06:49:38.577Z,8.20
2018-06-21T06:50:38.551Z,10.70
2018-06-21T06:51:38.532Z,10.30
2018-06-21T06:52:38.512Z,10.50
2018-06-21T06:53:38.486Z,10.50
2018-06-21T06:54:38.526Z,10.90
2018-06-21T06:55:38.450Z,9.50
2018-06-21T06:56:38.429Z,11.60
2018-06-21T06:57:38.413Z,11.20
2018-06-21T06:58:38.389Z,11.90
2018-06-21T06:59:38.367Z,17.60
2018-06-21T07:00:38.347Z,11.40
2018-06-21T07:01:38.334Z,12.10
2018-06-21T07:02:38.307Z,13.10
2018-06-21T07:03:38.286Z,13.30
2018-06-21T07:04:38.266Z,12.40
2018-06-21T07:05:38.249Z,14.90
2018-06-21T07:06:38.227Z,18.20
2018-06-21T07:07:38.211Z,16.10
2018-06-21T07:08:38.187Z,14.70
2018-06-21T07:09:38.169Z,15.90
2018-06-21T07:10:38.145Z,15.20
2018-06-21T07:11:38.171Z,15.80
2018-06-21T07:12:38.105Z,12.70
2018-06-21T07:13:38.089Z,15.10
2018-06-21T07:14:38.064Z,15.50
2018-06-21T07:15:38.044Z,15.40
2018-06-21T07:16:38.025Z,15.60
2018-06-21T07:17:38.003Z,15.50
2018-06-21T07:18:37.983Z,17.60
2018-06-21T07:19:37.964Z,12.60
2018-06-21T07:20:37.943Z,10.70
2018-06-21T07:21:37.922Z,12.30
2018-06-21T07:22:37.901Z,13.30
2018-06-21T07:23:37.883Z,12.10
2018-06-21T07:24:37.861Z,10.50
2018-06-21T07:25:37.840Z,10.20
2018-06-21T07:26:37.820Z,10.70
2018-06-21T07:27:37.800Z,13.00
2018-06-21T07:28:37.776Z,12.00
2018-06-21T07:29:37.760Z,12.40
2018-06-21T07:30:37.737Z,13.00
2018-06-21T07:31:37.722Z,9.20
2018-06-21T07:32:37.695Z,9.50
2018-06-21T07:33:37.715Z,7.70
2018-06-21T07:34:37.659Z,9.80
2018-06-21T07:35:37.637Z,9.10
2018-06-21T07:36:37.615Z,10.60
2018-06-21T07:37:37.596Z,9.50
2018-06-21T07:38:37.575Z,9.20
2018-06-21T07:39:37.573Z,9.30
2018-06-21T07:40:37.539Z,6.80
2018-06-21T07:41:37.517Z,10.20
2018-06-21T07:42:37.496Z,10.50
2018-06-21T07:43:37.475Z,6.90
2018-06-21T07:44:37.459Z,7.30
2018-06-21T07:45:37.432Z,10.30
2018-06-21T07:46:37.421Z,7.40
2018-06-21T07:47:37.396Z,12.00
2018-06-21T07:48:37.382Z,8.30
2018-06-21T07:49:37.359Z,9.00
2018-06-21T07:50:37.337Z,7.20
2018-06-21T07:51:37.320Z,7.50
2018-06-21T07:52:37.299Z,8.90
2018-06-21T07:53:37.279Z,8.10
2018-06-21T07:54:37.263Z,8.20
2018-06-21T07:55:37.241Z,8.20
2018-06-21T07:56:37.221Z,8.20
2018-06-21T07:57:37.201Z,7.70
2018-06-21T07:58:37.180Z,7.80
2018-06-21T07:59:37.160Z,8.40
2018-06-21T08:00:37.148Z,10.40
2018-06-21T08:01:37.124Z,7.70
2018-06-21T08:02:37.108Z,7.20
2018-06-21T08:03:37.083Z,8.00
2018-06-21T08:04:37.070Z,10.30
2018-06-21T08:05:37.044Z,9.70
2018-06-21T08:06:37.026Z,7.00
2018-06-21T08:07:37.003Z,10.10
2018-06-21T08:08:36.986Z,8.00
2018-06-21T08:09:36.972Z,6.90
2018-06-21T08:10:36.946Z,6.40
2018-06-21T08:11:36.928Z,7.70
2018-06-21T08:12:36.908Z,8.40
2018-06-21T08:13:36.891Z,8.90
2018-06-21T08:14:36.869Z,7.90
2018-06-21T08:15:36.852Z,6.10
2018-06-21T08:16:36.831Z,10.20
2018-06-21T08:17:36.813Z,6.50
2018-06-21T08:18:36.796Z,11.40
2018-06-21T08:19:36.776Z,8.80
2018-06-21T08:20:36.758Z,8.30
2018-06-21T08:21:36.739Z,6.70
2018-06-21T08:22:36.720Z,6.50
2018-06-21T08:23:36.702Z,9.20
2018-06-21T08:24:36.682Z,9.40
2018-06-21T08:25:36.666Z,7.70
2018-06-21T08:26:36.647Z,8.90
2018-06-21T08:27:36.628Z,9.00
2018-06-21T08:28:36.609Z,5.10
2018-06-21T08:29:36.593Z,7.60
2018-06-21T08:30:36.574Z,6.00
2018-06-21T08:31:36.554Z,7.90
2018-06-21T08:32:36.532Z,5.60
2018-06-21T08:33:36.523Z,8.00
2018-06-21T08:34:36.500Z,7.10
2018-06-21T08:35:36.483Z,8.70
2018-06-21T08:36:36.458Z,4.40
2018-06-21T08:37:36.448Z,5.90
2018-06-21T08:38:36.428Z,7.40
2018-06-21T08:39:36.411Z,6.20
2018-06-21T08:40:36.393Z,7.00
2018-06-21T08:41:36.374Z,5.60
2018-06-21T08:42:36.355Z,6.30
2018-06-21T08:43:36.337Z,5.30
2018-06-21T08:44:36.321Z,6.40
2018-06-21T08:45:36.302Z,7.30
2018-06-21T08:46:36.282Z,6.10
2018-06-21T08:47:36.265Z,5.50
2018-06-21T08:48:36.248Z,6.90
2018-06-21T08:49:36.230Z,5.70
2018-06-21T08:50:36.213Z,7.60
2018-06-21T08:51:36.195Z,8.70
2018-06-21T08:52:36.179Z,6.80
2018-06-21T08:53:36.162Z,4.40
2018-06-21T08:54:36.144Z,8.70
2018-06-21T08:55:36.125Z,6.80
2018-06-21T08:56:36.107Z,6.20
2018-06-21T08:57:36.091Z,6.50
2018-06-21T08:58:36.073Z,9.60
2018-06-21T08:59:36.055Z,5.50
2018-06-21T09:00:36.038Z,5.40
2018-06-21T09:01:36.025Z,5.20
2018-06-21T09:02:36.004Z,3.90
2018-06-21T09:03:35.988Z,3.20
2018-06-21T09:04:35.973Z,4.20
2018-06-21T09:05:35.954Z,4.30
2018-06-21T09:06:35.937Z,4.30
2018-06-21T09:07:35.924Z,3.50
2018-06-21T09:08:35.904Z,5.60
2018-06-21T09:09:35.948Z,3.30
2018-06-21T09:10:35.872Z,3.40
2018-06-21T09:11:35.894Z,5.40
2018-06-21T09:12:35.840Z,5.80
2018-06-21T09:13:35.828Z,5.50
2018-06-21T09:14:35.807Z,6.20
2018-06-21T09:15:35.790Z,5.30
2018-06-21T09:16:35.778Z,2.90
2018-06-21T09:17:35.762Z,3.70
2018-06-21T09:18:35.742Z,3.10
2018-06-21T09:19:35.726Z,4.60
2018-06-21T09:20:35.711Z,5.10
2018-06-21T09:21:35.695Z,3.00
2018-06-21T09:22:35.682Z,4.80
2018-06-21T09:23:35.672Z,6.00
2018-06-21T09:24:35.651Z,3.10
2018-06-21T09:25:35.629Z,6.60
2018-06-21T09:26:35.617Z,5.20
2018-06-21T09:27:35.600Z,3.00
2018-06-21T09:28:35.579Z,3.40
2018-06-21T09:29:35.565Z,5.20
2018-06-21T09:30:35.546Z,4.70
2018-06-21T09:31:35.529Z,4.00
2018-06-21T09:32:35.515Z,4.90
2018-06-21T09:33:35.495Z,5.20
2018-06-21T09:34:35.476Z,8.80
2018-06-21T09:35:35.459Z,3.70
2018-06-21T09:36:35.442Z,4.80
2018-06-21T09:37:35.420Z,4.00
2018-06-21T09:38:35.401Z,5.10
2018-06-21T09:39:35.386Z,7.50
2018-06-21T09:40:35.364Z,5.80
2018-06-21T09:41:35.345Z,6.00
2018-06-21T09:42:35.323Z,5.30
2018-06-21T09:43:35.305Z,5.40
2018-06-21T09:44:35.286Z,5.80
2018-06-21T09:45:35.266Z,6.60
2018-06-21T09:46:35.249Z,3.90
2018-06-21T09:47:35.233Z,4.40
2018-06-21T09:48:35.215Z,5.00
2018-06-21T09:49:35.196Z,5.10
2018-06-21T09:50:35.175Z,5.70
2018-06-21T09:51:35.158Z,5.20
2018-06-21T09:52:35.203Z,5.60
2018-06-21T09:53:35.124Z,8.20
2018-06-21T09:54:35.108Z,5.20
2018-06-21T09:55:35.090Z,5.10
2018-06-21T09:56:35.076Z,4.10
2018-06-21T09:57:35.094Z,5.40
2018-06-21T09:58:35.040Z,4.70
2018-06-21T09:59:35.025Z,4.00
2018-06-21T10:00:35.011Z,7.00
2018-06-21T10:01:34.994Z,3.20
2018-06-21T10:02:34.979Z,4.50
2018-06-21T10:03:34.961Z,3.80
2018-06-21T10:04:34.945Z,4.30
2018-06-21T10:05:34.931Z,3.50
2018-06-21T10:06:34.920Z,5.60
2018-06-21T10:07:34.901Z,4.20
2018-06-21T10:08:34.888Z,4.50
2018-06-21T10:09:34.873Z,6.30
2018-06-21T10:10:34.853Z,5.90
2018-06-21T10:11:34.841Z,4.20
2018-06-21T10:12:34.825Z,2.90
2018-06-21T10:13:34.815Z,5.00
2018-06-21T10:14:34.795Z,4.70
2018-06-21T10:15:34.779Z,4.30
2018-06-21T10:16:34.766Z,3.40
2018-06-21T10:17:34.751Z,3.70
2018-06-21T10:18:34.749Z,3.50
2018-06-21T10:19:34.721Z,2.90
2018-06-21T10:20:34.739Z,3.30
2018-06-21T10:21:34.692Z,3.10
2018-06-21T10:22:34.678Z,3.70
2018-06-21T10:23:34.663Z,3.70
2018-06-21T10:24:34.652Z,7.70
2018-06-21T10:25:34.636Z,3.00
2018-06-21T10:26:34.624Z,4.80
2018-06-21T10:27:34.609Z,3.60
2018-06-21T10:28:34.594Z,3.90
2018-06-21T10:29:34.574Z,3.60
2018-06-21T10:30:34.567Z,4.50
2018-06-21T10:31:34.554Z,6.90
2018-06-21T10:32:34.539Z,4.80
2018-06-21T10:33:34.526Z,4.70
2018-06-21T10:34:34.510Z,6.30
2018-06-21T10:35:34.495Z,4.60
2018-06-21T10:36:34.488Z,5.20
2018-06-21T10:37:34.468Z,7.70
2018-06-21T10:38:34.454Z,4.90
2018-06-21T10:39:34.435Z,4.00
2018-06-21T10:40:34.424Z,5.10
2018-06-21T10:41:34.408Z,3.30
2018-06-21T10:42:34.397Z,6.60
2018-06-21T10:43:34.379Z,4.50
2018-06-21T10:44:34.363Z,5.10
2018-06-21T10:45:34.346Z,6.90
2018-06-21T10:46:34.333Z,4.60
2018-06-21T10:47:34.318Z,6.10
2018-06-21T10:48:34.305Z,7.00
2018-06-21T10:49:34.287Z,3.90
2018-06-21T10:50:34.272Z,7.70
2018-06-21T10:51:34.259Z,4.10
2018-06-21T10:52:34.244Z,4.40
2018-06-21T10:53:34.232Z,8.70
2018-06-21T10:54:34.217Z,3.40
2018-06-21T10:55:34.201Z,2.50
2018-06-21T10:56:34.191Z,6.40
2018-06-21T10:57:34.177Z,2.80
2018-06-21T10:58:34.163Z,4.20
2018-06-21T10:59:34.149Z,3.60
2018-06-21T11:00:34.136Z,5.60
2018-06-21T11:01:34.128Z,4.70
2018-06-21T11:02:34.116Z,4.20
2018-06-21T11:03:34.096Z,3.70
2018-06-21T11:04:34.085Z,3.70
2018-06-21T11:05:34.073Z,4.50
2018-06-21T11:06:34.060Z,5.70
2018-06-21T11:07:34.043Z,2.80
2018-06-21T11:08:34.046Z,5.00
2018-06-21T11:09:34.017Z,2.70
2018-06-21T11:10:34.004Z,3.70
2018-06-21T11:11:33.988Z,3.30
2018-06-21T11:12:33.977Z,2.80
2018-06-21T11:13:33.963Z,2.50
2018-06-21T11:14:33.950Z,3.00
2018-06-21T11:15:33.941Z,4.00
2018-06-21T11:16:33.924Z,3.20
2018-06-21T11:17:33.914Z,3.10
2018-06-21T11:18:33.904Z,6.10
2018-06-21T11:19:33.892Z,2.70
2018-06-21T11:20:33.880Z,6.50
2018-06-21T11:21:33.867Z,5.20
2018-06-21T11:22:33.856Z,3.20
2018-06-21T11:23:33.846Z,5.00
2018-06-21T11:24:33.835Z,6.20
2018-06-21T11:25:33.822Z,4.40
2018-06-21T11:26:33.808Z,3.20
2018-06-21T11:27:33.800Z,4.10
2018-06-21T11:28:33.786Z,5.40
2018-06-21T11:29:33.772Z,4.80
2018-06-21T11:30:33.757Z,4.20
2018-06-21T11:31:33.745Z,5.00
2018-06-21T11:32:33.730Z,6.30
2018-06-21T11:33:33.718Z,4.20
2018-06-21T11:34:33.705Z,4.20
2018-06-21T11:35:33.694Z,5.30
2018-06-21T11:36:33.682Z,3.40
2018-06-21T11:37:33.667Z,7.40
2018-06-21T11:38:33.655Z,6.10
2018-06-21T11:39:33.642Z,6.70
2018-06-21T11:40:33.632Z,3.90
2018-06-21T11:41:33.622Z,2.70
2018-06-21T11:42:33.611Z,6.80
2018-06-21T11:43:33.600Z,2.90
2018-06-21T11:44:33.589Z,4.20
2018-06-21T11:45:33.576Z,4.20
2018-06-21T11:46:33.567Z,2.40
2018-06-21T11:47:33.556Z,4.70
2018-06-21T11:48:33.544Z,3.50
2018-06-21T11:49:33.538Z,6.10
2018-06-21T11:50:33.523Z,3.80
2018-06-21T11:51:33.512Z,3.70
2018-06-21T11:52:33.505Z,5.00
2018-06-21T11:53:33.495Z,4.90
2018-06-21T11:54:33.734Z,6.80
2018-06-21T11:55:33.473Z,4.00
2018-06-21T11:56:33.464Z,3.30
2018-06-21T11:57:33.461Z,4.20
2018-06-21T11:58:33.448Z,5.60
2018-06-21T11:59:33.439Z,3.80
2018-06-21T12:00:33.427Z,8.30
2018-06-21T12:01:33.421Z,4.10
2018-06-21T12:02:33.407Z,4.90
2018-06-21T12:03:33.438Z,5.60
2018-06-21T12:04:33.437Z,3.40
2018-06-21T12:05:33.379Z,4.10
2018-06-21T12:06:33.368Z,7.50
2018-06-21T12:07:33.360Z,5.00
2018-06-21T12:08:33.350Z,16.40
2018-06-21T12:09:33.337Z,4.20
2018-06-21T12:10:33.326Z,7.30
2018-06-21T12:11:33.317Z,3.10
2018-06-21T12:12:33.307Z,7.30
2018-06-21T12:13:33.294Z,3.10
2018-06-21T12:14:33.283Z,2.60
2018-06-21T12:15:33.273Z,2.20
2018-06-21T12:16:33.263Z,5.20
2018-06-21T12:17:33.254Z,3.20
2018-06-21T12:18:33.244Z,4.10
2018-06-21T12:19:33.232Z,9.20
2018-06-21T12:20:33.223Z,6.00
2018-06-21T12:21:33.213Z,3.30
2018-06-21T12:22:33.203Z,4.40
2018-06-21T12:23:33.193Z,5.10
2018-06-21T12:24:33.183Z,4.60
2018-06-21T12:25:33.171Z,4.30
2018-06-21T12:26:33.164Z,4.00
2018-06-21T12:27:33.178Z,8.30
2018-06-21T12:28:33.154Z,5.20
2018-06-21T12:29:33.136Z,7.80
2018-06-21T12:30:33.133Z,7.20
2018-06-21T12:31:33.114Z,5.10
2018-06-21T12:32:33.150Z,4.10
2018-06-21T12:33:33.097Z,4.40
2018-06-21T12:34:33.081Z,5.50
2018-06-21T12:35:33.078Z,4.70
2018-06-21T12:36:33.068Z,3.90
2018-06-21T12:37:33.060Z,3.80
2018-06-21T12:38:33.055Z,6.00
2018-06-21T12:39:33.037Z,3.30
2018-06-21T12:40:33.031Z,2.10
2018-06-21T12:41:33.022Z,3.00
2018-06-21T12:42:33.012Z,3.60
2018-06-21T12:43:33.063Z,4.60
2018-06-21T12:44:32.998Z,4.80
2018-06-21T12:45:32.988Z,4.00
2018-06-21T12:46:32.997Z,4.80
2018-06-21T12:47:32.970Z,3.80
2018-06-21T12:48:32.965Z,3.90
2018-06-21T12:49:32.951Z,5.00
2018-06-21T12:50:32.941Z,4.50
2018-06-21T12:51:32.934Z,4.50
2018-06-21T12:52:32.959Z,3.40
2018-06-21T12:53:32.917Z,3.70
2018-06-21T12:54:32.911Z,5.40
2018-06-21T12:55:32.899Z,4.10
2018-06-21T12:56:32.891Z,4.20
2018-06-21T12:57:32.883Z,3.00
2018-06-21T12:58:32.874Z,3.80
2018-06-21T12:59:32.866Z,4.60
2018-06-21T13:00:32.859Z,4.20
2018-06-21T13:01:32.849Z,5.10
2018-06-21T13:02:32.837Z,2.50
2018-06-21T13:03:32.836Z,3.30
2018-06-21T13:04:32.827Z,9.20
2018-06-21T13:05:32.822Z,3.60
2018-06-21T13:06:32.808Z,3.70
2018-06-21T13:07:32.805Z,3.00
2018-06-21T13:08:32.793Z,2.10
2018-06-21T13:09:32.787Z,3.70
2018-06-21T13:10:32.777Z,5.50
2018-06-21T13:11:32.769Z,3.70
2018-06-21T13:12:32.764Z,5.30
2018-06-21T13:13:32.753Z,7.40
2018-06-21T13:14:32.746Z,3.80
2018-06-21T13:15:32.764Z,7.80
2018-06-21T13:16:32.729Z,4.30
2018-06-21T13:17:32.718Z,4.60
2018-06-21T13:18:32.713Z,5.20
2018-06-21T13:19:32.704Z,4.00
2018-06-21T13:20:32.751Z,4.80
2018-06-21T13:21:32.690Z,4.90
2018-06-21T13:22:32.680Z,5.50
2018-06-21T13:23:32.676Z,4.70
2018-06-21T13:24:32.668Z,9.80
2018-06-21T13:25:32.658Z,4.00
2018-06-21T13:26:32.649Z,2.80
2018-06-21T13:27:32.644Z,3.70
2018-06-21T13:28:32.633Z,4.80
2018-06-21T13:29:32.625Z,4.00
2018-06-21T13:30:32.617Z,3.20
2018-06-21T13:31:32.610Z,7.90
2018-06-21T13:32:32.602Z,3.00
2018-06-21T13:33:32.595Z,3.10
2018-06-21T13:34:32.592Z,4.90
2018-06-21T13:35:32.579Z,4.00
2018-06-21T13:36:32.575Z,3.00
2018-06-21T13:37:32.561Z,3.60
2018-06-21T13:38:32.555Z,5.00
2018-06-21T13:39:32.547Z,6.90
2018-06-21T13:40:32.539Z,5.40
2018-06-21T13:41:32.534Z,4.40
2018-06-21T13:42:32.527Z,4.30
2018-06-21T13:43:32.517Z,3.70
2018-06-21T13:44:32.512Z,2.40
2018-06-21T13:45:32.507Z,4.00
2018-06-21T13:46:32.495Z,10.20
2018-06-21T13:47:32.496Z,5.70
2018-06-21T13:48:32.481Z,9.20
2018-06-21T13:49:32.472Z,5.90
2018-06-21T13:50:32.463Z,5.40
2018-06-21T13:51:32.461Z,6.60
2018-06-21T13:52:32.448Z,3.00
2018-06-21T13:53:32.440Z,4.40
2018-06-21T13:54:32.458Z,2.90
2018-06-21T13:55:32.425Z,4.30
2018-06-21T13:56:32.417Z,3.40
2018-06-21T13:57:32.408Z,3.70
2018-06-21T13:58:32.397Z,3.90
2018-06-21T13:59:32.391Z,5.10
2018-06-21T14:00:32.412Z,4.70
2018-06-21T14:01:32.374Z,4.20
2018-06-21T14:02:32.365Z,3.40
2018-06-21T14:03:32.356Z,4.00
2018-06-21T14:04:32.348Z,3.00
2018-06-21T14:05:32.345Z,6.40
2018-06-21T14:06:32.331Z,3.20
2018-06-21T14:07:32.344Z,4.70
2018-06-21T14:08:32.566Z,6.60
2018-06-21T14:09:32.307Z,5.30
2018-06-21T14:10:32.300Z,3.50
2018-06-21T14:11:32.291Z,2.70
2018-06-21T14:12:32.288Z,3.30
2018-06-21T14:13:32.278Z,2.00
2018-06-21T14:14:32.266Z,3.30
2018-06-21T14:15:32.260Z,3.10
2018-06-21T14:16:32.251Z,3.20
2018-06-21T14:17:32.244Z,4.80
2018-06-21T14:18:32.238Z,3.40
2018-06-21T14:19:32.229Z,2.00
2018-06-21T14:20:32.237Z,2.40
2018-06-21T14:21:32.214Z,4.80
2018-06-21T14:22:32.210Z,5.90
2018-06-21T14:23:32.232Z,2.50
2018-06-21T14:24:32.196Z,2.60
2018-06-21T14:25:32.185Z,3.60
2018-06-21T14:26:32.184Z,2.60
2018-06-21T14:27:32.170Z,3.70
2018-06-21T14:28:32.164Z,3.30
2018-06-21T14:29:32.157Z,4.10
2018-06-21T14:30:32.148Z,2.00
2018-06-21T14:31:32.137Z,3.40
2018-06-21T14:32:32.131Z,3.60
2018-06-21T14:33:32.125Z,2.30
2018-06-21T14:34:32.116Z,2.80
2018-06-21T14:35:32.108Z,4.90
2018-06-21T14:36:32.101Z,4.90
2018-06-21T14:37:32.091Z,2.60
2018-06-21T14:38:32.082Z,7.50
2018-06-21T14:39:32.075Z,3.40
2018-06-21T14:40:32.065Z,2.60
2018-06-21T14:41:32.060Z,3.00
2018-06-21T14:42:32.050Z,2.90
2018-06-21T14:43:32.038Z,2.60
2018-06-21T14:44:32.029Z,5.20
2018-06-21T14:45:32.016Z,3.50
2018-06-21T14:46:32.006Z,3.50
2018-06-21T14:47:31.995Z,4.60
2018-06-21T14:48:31.983Z,3.00
2018-06-21T14:49:31.974Z,2.40
2018-06-21T14:50:31.962Z,4.20
2018-06-21T14:51:31.953Z,4.70
2018-06-21T14:52:31.941Z,4.10
2018-06-21T14:53:31.939Z,3.00
2018-06-21T14:54:31.923Z,2.30
2018-06-21T14:55:31.912Z,2.80
2018-06-21T14:56:31.904Z,3.90
2018-06-21T14:57:31.892Z,3.10
2018-06-21T14:58:31.884Z,3.50
2018-06-21T14:59:31.873Z,7.60
2018-06-21T15:00:31.868Z,3.70
2018-06-21T15:01:31.857Z,5.40
2018-06-21T15:02:31.841Z,2.30
2018-06-21T15:03:31.825Z,7.30
2018-06-21T15:04:31.815Z,4.80
2018-06-21T15:05:31.803Z,5.10
2018-06-21T15:06:31.791Z,2.40
2018-06-21T15:07:31.775Z,3.70
2018-06-21T15:08:31.764Z,4.20
2018-06-21T15:09:31.751Z,3.10
2018-06-21T15:10:31.743Z,6.10
2018-06-21T15:11:31.723Z,5.10
2018-06-21T15:12:31.708Z,9.60
2018-06-21T15:13:31.696Z,3.40
2018-06-21T15:14:31.693Z,4.20
2018-06-21T15:15:31.664Z,2.70
2018-06-21T15:16:31.649Z,6.40
2018-06-21T15:17:31.642Z,5.10
2018-06-21T15:18:31.618Z,2.60
2018-06-21T15:19:31.603Z,3.50
2018-06-21T15:20:31.587Z,3.60
2018-06-21T15:21:31.579Z,2.60
2018-06-21T15:22:31.552Z,2.20
2018-06-21T15:23:31.538Z,4.20
2018-06-21T15:24:31.521Z,6.50
2018-06-21T15:25:31.504Z,3.90
2018-06-21T15:26:31.489Z,4.50
2018-06-21T15:27:31.474Z,4.60
2018-06-21T15:28:31.456Z,3.40
2018-06-21T15:29:31.438Z,2.30
2018-06-21T15:30:31.422Z,2.50
2018-06-21T15:31:31.407Z,2.50
2018-06-21T15:32:31.583Z,2.50
2018-06-21T15:33:31.374Z,5.10
2018-06-21T15:34:31.364Z,4.20
2018-06-21T15:35:31.346Z,1.90
2018-06-21T15:36:31.332Z,2.00
2018-06-21T15:37:31.319Z,2.00
2018-06-21T15:38:31.302Z,1.90
2018-06-21T15:39:31.282Z,2.70
2018-06-21T15:40:31.277Z,1.80
2018-06-21T15:41:31.263Z,4.40
2018-06-21T15:42:31.253Z,2.70
2018-06-21T15:43:31.238Z,3.40
2018-06-21T15:44:31.233Z,1.90
2018-06-21T15:45:31.281Z,1.90
2018-06-21T15:46:31.208Z,2.50
2018-06-21T15:47:31.197Z,2.40
2018-06-21T15:48:31.202Z,3.40
2018-06-21T15:49:31.172Z,2.60
2018-06-21T15:50:31.161Z,2.20
2018-06-21T15:51:31.171Z,1.70
2018-06-21T15:52:31.147Z,3.30
2018-06-21T15:53:31.140Z,2.90
2018-06-21T15:54:31.126Z,2.40
2018-06-21T15:55:31.119Z,2.10
2018-06-21T15:56:31.110Z,3.30
2018-06-21T15:57:31.104Z,2.20
2018-06-21T15:58:31.088Z,3.90
2018-06-21T15:59:31.080Z,1.90
2018-06-21T16:00:31.073Z,2.80
2018-06-21T16:01:31.059Z,2.70
2018-06-21T16:02:31.045Z,5.80